createdAt,value
2022-11-20T00:00:08.784Z,100807.25
2022-11-20T00:01:12.494Z,100807.44
2022-11-20T00:02:15.526Z,100816.25
2022-11-20T00:03:18.114Z,100810.13
2022-11-20T00:04:20.581Z,100805.72
2022-11-20T00:05:22.079Z,100804.03
2022-11-20T00:06:27.645Z,100800.66
2022-11-20T00:07:29.164Z,100808.63
2022-11-20T00:08:31.641Z,100809.66
2022-11-20T00:09:33.142Z,100804.38
2022-11-20T00:10:38.163Z,100801.88
2022-11-20T00:11:39.787Z,100801.00
2022-11-20T00:12:42.290Z,100798.47
2022-11-20T00:13:44.041Z,100798.56
2022-11-20T00:14:46.547Z,100804.75
2022-11-20T00:15:48.076Z,100796.13
2022-11-20T00:16:50.575Z,100807.63
2022-11-20T00:17:52.057Z,100811.22
2022-11-20T00:18:54.966Z,100812.22
2022-11-20T00:19:56.578Z,100809.72
2022-11-20T00:21:03.343Z,100805.47
2022-11-20T00:22:07.232Z,100812.41
2022-11-20T00:23:08.857Z,100807.34
2022-11-20T00:24:11.695Z,100814.28
2022-11-20T00:25:13.218Z,100805.66
2022-11-20T00:26:18.238Z,100810.06
2022-11-20T00:27:19.756Z,100807.44
2022-11-20T00:28:22.259Z,100804.88
2022-11-20T00:29:23.783Z,100811.09
2022-11-20T00:30:26.268Z,100801.41
2022-11-20T00:31:28.895Z,100804.97
2022-11-20T00:32:31.790Z,100811.09
2022-11-20T00:33:33.963Z,100804.13
2022-11-20T00:34:36.451Z,100799.72
2022-11-20T00:35:38.143Z,100802.44
2022-11-20T00:36:41.139Z,100809.41
2022-11-20T00:37:43.999Z,100801.56
2022-11-20T00:38:47.042Z,100809.56
2022-11-20T00:39:48.587Z,100804.31
2022-11-20T00:40:57.130Z,100799.97
2022-11-20T00:41:58.647Z,100797.44
2022-11-20T00:43:01.176Z,100804.50
2022-11-20T00:44:02.710Z,100800.22
2022-11-20T00:45:06.034Z,100797.69
2022-11-20T00:46:10.835Z,100795.06
2022-11-20T00:47:13.357Z,100790.75
2022-11-20T00:48:14.814Z,100792.59
2022-11-20T00:49:17.303Z,100797.00
2022-11-20T00:50:18.916Z,100791.81
2022-11-20T00:51:23.742Z,100800.66
2022-11-20T00:52:25.240Z,100806.84
2022-11-20T00:53:29.324Z,100798.22
2022-11-20T00:54:31.811Z,100795.75
2022-11-20T00:55:33.316Z,100796.69
2022-11-20T00:56:35.817Z,100800.22
2022-11-20T00:57:37.336Z,100802.13
2022-11-20T00:58:41.317Z,100800.41
2022-11-20T00:59:42.861Z,100794.41
2022-11-20T01:00:45.405Z,100793.63
2022-11-20T01:01:46.985Z,100791.09
2022-11-20T01:02:49.426Z,100793.72
2022-11-20T01:03:52.862Z,100798.13
2022-11-20T01:04:55.326Z,100798.97
2022-11-20T01:06:01.224Z,100790.25
2022-11-20T01:07:03.762Z,100794.66
2022-11-20T01:08:05.717Z,100793.72
2022-11-20T01:09:12.475Z,100791.16
2022-11-20T01:10:14.058Z,100788.66
2022-11-20T01:11:19.762Z,100792.13
2022-11-20T01:12:21.268Z,100784.31
2022-11-20T01:13:42.107Z,100787.03
2022-11-20T01:14:43.782Z,100794.94
2022-11-20T01:15:46.258Z,100783.63
2022-11-20T01:16:50.099Z,100783.63
2022-11-20T01:17:52.527Z,100786.19
2022-11-20T01:18:57.429Z,100781.78
2022-11-20T01:19:59.889Z,100783.47
2022-11-20T01:21:03.530Z,100783.47
2022-11-20T01:22:06.038Z,100785.16
2022-11-20T01:23:07.575Z,100783.47
2022-11-20T01:24:14.354Z,100777.34
2022-11-20T01:25:16.111Z,100788.88
2022-11-20T01:26:22.584Z,100781.94
2022-11-20T01:27:25.065Z,100787.19
2022-11-20T01:28:27.024Z,100795.06
2022-11-20T01:29:29.586Z,100790.78
2022-11-20T01:30:31.096Z,100793.28
2022-11-20T01:31:35.235Z,100797.69
2022-11-20T01:32:36.727Z,100793.41
2022-11-20T01:33:39.195Z,100793.47
2022-11-20T01:34:40.709Z,100790.84
2022-11-20T01:35:43.189Z,100788.31
2022-11-20T01:36:45.230Z,100790.94
2022-11-20T01:37:47.707Z,100788.22
2022-11-20T01:38:51.878Z,100780.25
2022-11-20T01:39:55.685Z,100786.19
2022-11-20T01:40:57.238Z,100786.09
2022-11-20T01:42:17.530Z,100786.88
2022-11-20T01:43:23.647Z,100785.06
2022-11-20T01:44:58.648Z,100779.91
2022-11-20T01:46:06.017Z,100781.59
2022-11-20T01:47:10.726Z,100779.06
2022-11-20T01:48:12.355Z,100780.84
2022-11-20T01:49:21.377Z,100779.91
2022-11-20T01:50:25.819Z,100774.66
2022-11-20T01:51:33.345Z,100773.72
2022-11-20T01:52:38.819Z,100783.28
2022-11-20T01:53:41.397Z,100778.97
2022-11-20T01:54:48.155Z,100771.09
2022-11-20T01:55:55.475Z,100771.00
2022-11-20T01:57:00.501Z,100774.47
2022-11-20T01:58:04.583Z,100770.91
2022-11-20T01:59:09.436Z,100774.28
2022-11-20T02:00:15.072Z,100774.13
2022-11-20T02:01:16.852Z,100768.69
2022-11-20T02:02:19.429Z,100772.09
2022-11-20T02:03:21.454Z,100776.41
2022-11-20T02:04:25.010Z,100768.31
2022-11-20T02:05:33.777Z,100766.47
2022-11-20T02:06:41.828Z,100769.84
2022-11-20T02:07:44.249Z,100770.69
2022-11-20T02:08:46.780Z,100764.59
2022-11-20T02:09:48.384Z,100757.50
2022-11-20T02:10:52.203Z,100755.63
2022-11-20T02:11:54.317Z,100762.41
2022-11-20T02:13:14.861Z,100753.56
2022-11-20T02:14:17.465Z,100753.31
2022-11-20T02:15:19.049Z,100751.53
2022-11-20T02:16:25.314Z,100746.09
2022-11-20T02:17:27.138Z,100753.06
2022-11-20T02:18:30.496Z,100748.59
2022-11-20T02:19:33.760Z,100742.34
2022-11-20T02:20:35.268Z,100747.59
2022-11-20T02:21:43.183Z,100745.91
2022-11-20T02:22:52.006Z,100743.28
2022-11-20T02:24:04.984Z,100738.94
2022-11-20T02:25:07.851Z,100733.69
2022-11-20T02:26:15.061Z,100740.66
2022-11-20T02:27:17.961Z,100740.72
2022-11-20T02:28:21.381Z,100740.81
2022-11-20T02:29:26.886Z,100735.66
2022-11-20T02:30:29.378Z,100739.13
2022-11-20T02:31:39.406Z,100732.34
2022-11-20T02:32:42.491Z,100732.53
2022-11-20T02:33:44.039Z,100734.41
2022-11-20T02:34:46.506Z,100739.66
2022-11-20T02:35:48.503Z,100740.69
2022-11-20T02:36:52.557Z,100745.84
2022-11-20T02:37:55.792Z,100740.69
2022-11-20T02:38:58.259Z,100745.13
2022-11-20T02:40:01.232Z,100739.84
2022-11-20T02:41:04.045Z,100734.66
2022-11-20T02:42:06.248Z,100739.84
2022-11-20T02:43:09.373Z,100744.25
2022-11-20T02:44:10.953Z,100743.34
2022-11-20T02:45:14.166Z,100739.00
2022-11-20T02:46:15.668Z,100743.34
2022-11-20T02:47:18.212Z,100740.59
2022-11-20T02:48:19.717Z,100738.81
2022-11-20T02:49:22.308Z,100743.16
2022-11-20T02:50:23.949Z,100735.16
2022-11-20T02:51:26.632Z,100733.47
2022-11-20T02:52:28.299Z,100727.25
2022-11-20T02:53:30.810Z,100739.50
2022-11-20T02:54:32.311Z,100736.97
2022-11-20T02:55:37.088Z,100740.41
2022-11-20T02:56:39.317Z,100736.28
2022-11-20T02:57:41.887Z,100742.47
2022-11-20T02:58:43.472Z,100740.78
2022-11-20T02:59:45.980Z,100733.88
2022-11-20T03:00:47.476Z,100738.41
2022-11-20T03:01:50.080Z,100744.59
2022-11-20T03:02:51.595Z,100736.78
2022-11-20T03:03:55.413Z,100736.88
2022-11-20T03:04:56.915Z,100745.78
2022-11-20T03:06:00.764Z,100744.94
2022-11-20T03:07:02.440Z,100749.53
2022-11-20T03:08:05.158Z,100744.47
2022-11-20T03:09:07.934Z,100738.53
2022-11-20T03:10:09.995Z,100739.56
2022-11-20T03:11:14.070Z,100736.16
2022-11-20T03:12:15.724Z,100734.63
2022-11-20T03:13:18.219Z,100737.34
2022-11-20T03:14:22.349Z,100741.00
2022-11-20T03:15:25.200Z,100734.06
2022-11-20T03:16:26.701Z,100736.75
2022-11-20T03:17:30.293Z,100736.84
2022-11-20T03:18:31.828Z,100737.03
2022-11-20T03:19:35.079Z,100731.09
2022-11-20T03:20:36.676Z,100737.38
2022-11-20T03:21:40.248Z,100739.34
2022-11-20T03:22:41.741Z,100736.03
2022-11-20T03:23:44.269Z,100735.34
2022-11-20T03:24:45.749Z,100736.38
2022-11-20T03:25:48.218Z,100735.59
2022-11-20T03:26:51.098Z,100732.22
2022-11-20T03:27:53.594Z,100731.47
2022-11-20T03:28:57.041Z,100726.28
2022-11-20T03:29:59.484Z,100729.94
2022-11-20T03:31:06.875Z,100729.16
2022-11-20T03:32:09.399Z,100733.59
2022-11-20T03:33:11.144Z,100739.75
2022-11-20T03:34:14.461Z,100739.94
2022-11-20T03:35:15.947Z,100737.38
2022-11-20T03:36:20.515Z,100740.97
2022-11-20T03:37:22.038Z,100742.63
2022-11-20T03:38:24.527Z,100736.53
2022-11-20T03:39:26.096Z,100733.84
2022-11-20T03:40:28.664Z,100727.66
2022-11-20T03:41:31.717Z,100729.31
2022-11-20T03:42:47.865Z,100726.69
2022-11-20T03:43:50.357Z,100723.91
2022-11-20T03:44:52.793Z,100723.84
2022-11-20T03:45:54.325Z,100727.22
2022-11-20T03:46:56.827Z,100726.22
2022-11-20T03:47:58.366Z,100726.97
2022-11-20T03:49:01.200Z,100732.97
2022-11-20T03:50:02.726Z,100731.97
2022-11-20T03:51:09.382Z,100716.97
2022-11-20T03:52:10.924Z,100723.81
2022-11-20T03:53:13.457Z,100727.22
2022-11-20T03:54:15.031Z,100728.03
2022-11-20T03:55:17.560Z,100733.22
2022-11-20T03:56:20.799Z,100733.97
2022-11-20T03:57:23.274Z,100721.78
2022-11-20T03:58:26.108Z,100731.34
2022-11-20T03:59:28.579Z,100740.94
2022-11-20T04:00:30.095Z,100738.31
2022-11-20T04:01:34.732Z,100740.00
2022-11-20T04:02:36.281Z,100732.97
2022-11-20T04:03:40.371Z,100726.78
2022-11-20T04:04:41.864Z,100732.03
2022-11-20T04:05:44.714Z,100724.13
2022-11-20T04:06:46.896Z,100730.25
2022-11-20T04:07:49.371Z,100722.47
2022-11-20T04:08:53.744Z,100729.50
2022-11-20T04:09:56.680Z,100727.72
2022-11-20T04:11:08.403Z,100726.09
2022-11-20T04:12:10.874Z,100726.28
2022-11-20T04:13:12.375Z,100717.63
2022-11-20T04:14:17.152Z,100716.78
2022-11-20T04:15:18.930Z,100719.47
2022-11-20T04:16:22.042Z,100715.19
2022-11-20T04:17:23.557Z,100718.72
2022-11-20T04:18:26.054Z,100724.91
2022-11-20T04:19:27.567Z,100725.88
2022-11-20T04:20:30.014Z,100724.09
2022-11-20T04:21:31.949Z,100732.78
2022-11-20T04:22:34.442Z,100730.28
2022-11-20T04:23:36.423Z,100726.78
2022-11-20T04:24:39.009Z,100725.09
2022-11-20T04:25:40.569Z,100730.28
2022-11-20T04:26:43.112Z,100729.41
2022-11-20T04:27:44.615Z,100730.16
2022-11-20T04:28:47.136Z,100723.25
2022-11-20T04:29:49.947Z,100724.91
2022-11-20T04:30:52.492Z,100717.03
2022-11-20T04:31:54.007Z,100725.88
2022-11-20T04:32:56.497Z,100725.94
2022-11-20T04:34:00.984Z,100728.66
2022-11-20T04:35:03.430Z,100721.72
2022-11-20T04:36:08.140Z,100727.13
2022-11-20T04:37:10.607Z,100717.56
2022-11-20T04:38:12.092Z,100723.75
2022-11-20T04:39:16.218Z,100729.94
2022-11-20T04:40:17.759Z,100725.59
2022-11-20T04:41:23.134Z,100727.50
2022-11-20T04:42:35.178Z,100726.69
2022-11-20T04:43:37.780Z,100727.56
2022-11-20T04:44:39.475Z,100724.06
2022-11-20T04:45:43.288Z,100725.03
2022-11-20T04:46:44.887Z,100728.56
2022-11-20T04:47:47.392Z,100727.72
2022-11-20T04:48:49.042Z,100728.56
2022-11-20T04:49:51.581Z,100725.09
2022-11-20T04:50:56.711Z,100726.88
2022-11-20T04:51:59.294Z,100726.03
2022-11-20T04:53:00.828Z,100725.22
2022-11-20T04:54:03.355Z,100720.13
2022-11-20T04:55:05.583Z,100730.69
2022-11-20T04:56:11.849Z,100729.00
2022-11-20T04:57:15.260Z,100725.50
2022-11-20T04:58:18.309Z,100723.84
2022-11-20T04:59:20.211Z,100725.50
2022-11-20T05:00:24.261Z,100726.38
2022-11-20T05:01:28.409Z,100725.50
2022-11-20T05:02:31.603Z,100729.09
2022-11-20T05:03:37.391Z,100726.47
2022-11-20T05:04:43.575Z,100723.91
2022-11-20T05:05:45.139Z,100716.88
2022-11-20T05:06:47.897Z,100725.63
2022-11-20T05:07:49.458Z,100723.84
2022-11-20T05:08:52.211Z,100723.75
2022-11-20T05:09:53.968Z,100728.00
2022-11-20T05:11:00.922Z,100725.38
2022-11-20T05:12:02.416Z,100730.63
2022-11-20T05:13:04.885Z,100731.44
2022-11-20T05:14:06.559Z,100721.78
2022-11-20T05:15:09.963Z,100728.91
2022-11-20T05:16:13.993Z,100727.22
2022-11-20T05:17:18.105Z,100725.50
2022-11-20T05:18:19.606Z,100723.84
2022-11-20T05:19:25.426Z,100725.50
2022-11-20T05:20:26.895Z,100726.38
2022-11-20T05:21:31.914Z,100726.38
2022-11-20T05:22:33.407Z,100723.00
2022-11-20T05:23:36.252Z,100727.38
2022-11-20T05:24:37.746Z,100724.00
2022-11-20T05:25:40.249Z,100725.78
2022-11-20T05:26:41.833Z,100724.09
2022-11-20T05:27:44.514Z,100727.56
2022-11-20T05:28:46.472Z,100727.56
2022-11-20T05:29:48.936Z,100728.47
2022-11-20T05:30:50.719Z,100719.75
2022-11-20T05:31:53.161Z,100715.34
2022-11-20T05:32:55.987Z,100725.84
2022-11-20T05:33:59.139Z,100726.63
2022-11-20T05:35:00.696Z,100723.00
2022-11-20T05:36:03.874Z,100718.59
2022-11-20T05:37:05.384Z,100728.00
2022-11-20T05:38:08.009Z,100720.03
2022-11-20T05:39:12.758Z,100721.63
2022-11-20T05:40:14.441Z,100716.19
2022-11-20T05:41:19.436Z,100721.28
2022-11-20T05:42:33.132Z,100719.44
2022-11-20T05:43:36.575Z,100717.56
2022-11-20T05:44:40.049Z,100717.47
2022-11-20T05:45:43.250Z,100720.00
2022-11-20T05:46:47.884Z,100725.25
2022-11-20T05:47:50.474Z,100720.78
2022-11-20T05:48:53.803Z,100723.25
2022-11-20T05:49:56.625Z,100718.72
2022-11-20T05:50:58.756Z,100713.41
2022-11-20T05:52:01.465Z,100719.41
2022-11-20T05:53:04.345Z,100711.47
2022-11-20T05:54:06.863Z,100709.56
2022-11-20T05:55:09.361Z,100715.69
2022-11-20T05:56:14.534Z,100706.94
2022-11-20T05:57:17.791Z,100709.56
2022-11-20T05:58:20.226Z,100717.34
2022-11-20T05:59:24.859Z,100714.66
2022-11-20T06:00:27.309Z,100714.66
2022-11-20T06:01:28.838Z,100712.78
2022-11-20T06:02:31.353Z,100722.38
2022-11-20T06:03:32.961Z,100721.44
2022-11-20T06:04:36.774Z,100718.81
2022-11-20T06:05:38.284Z,100720.47
2022-11-20T06:06:40.975Z,100714.41
2022-11-20T06:07:42.602Z,100710.94
2022-11-20T06:08:45.853Z,100709.97
2022-11-20T06:09:47.335Z,100710.94
2022-11-20T06:10:49.832Z,100709.97
2022-11-20T06:11:51.349Z,100709.06
2022-11-20T06:12:53.847Z,100710.81
2022-11-20T06:13:55.382Z,100706.34
2022-11-20T06:14:57.846Z,100707.19
2022-11-20T06:15:59.448Z,100708.88
2022-11-20T06:17:02.008Z,100704.41
2022-11-20T06:18:03.636Z,100704.28
2022-11-20T06:19:06.295Z,100709.47
2022-11-20T06:20:10.795Z,100707.69
2022-11-20T06:21:15.821Z,100701.59
2022-11-20T06:22:17.391Z,100706.66
2022-11-20T06:23:19.854Z,100704.97
2022-11-20T06:24:26.259Z,100708.34
2022-11-20T06:25:27.799Z,100703.09
2022-11-20T06:26:30.297Z,100710.81
2022-11-20T06:27:31.816Z,100714.28
2022-11-20T06:28:34.496Z,100716.81
2022-11-20T06:29:35.971Z,100715.03
2022-11-20T06:30:38.574Z,100715.78
2022-11-20T06:31:43.238Z,100712.31
2022-11-20T06:32:44.779Z,100714.00
2022-11-20T06:33:47.368Z,100708.75
2022-11-20T06:34:48.849Z,100716.63
2022-11-20T06:35:58.444Z,100722.75
2022-11-20T06:37:01.539Z,100720.19
2022-11-20T06:38:04.039Z,100720.19
2022-11-20T06:39:05.617Z,100719.34
2022-11-20T06:40:09.733Z,100723.78
2022-11-20T06:41:12.923Z,100724.59
2022-11-20T06:42:15.439Z,100725.44
2022-11-20T06:43:16.971Z,100728.09
2022-11-20T06:44:19.468Z,100730.72
2022-11-20T06:45:21.003Z,100732.41
2022-11-20T06:46:23.806Z,100717.69
2022-11-20T06:47:25.339Z,100733.34
2022-11-20T06:48:29.707Z,100720.19
2022-11-20T06:49:32.182Z,100729.03
2022-11-20T06:50:33.750Z,100715.91
2022-11-20T06:51:37.578Z,100712.59
2022-11-20T06:52:43.462Z,100713.78
2022-11-20T06:53:46.727Z,100720.16
2022-11-20T06:54:48.265Z,100716.00
2022-11-20T06:55:51.722Z,100714.47
2022-11-20T06:56:53.274Z,100713.81
2022-11-20T06:57:56.085Z,100718.38
2022-11-20T06:58:57.716Z,100722.97
2022-11-20T07:00:00.437Z,100728.41
2022-11-20T07:01:12.679Z,100722.47
2022-11-20T07:02:15.241Z,100729.66
2022-11-20T07:03:16.735Z,100726.28
2022-11-20T07:04:19.493Z,100738.75
2022-11-20T07:05:21.087Z,100736.22
2022-11-20T07:06:23.737Z,100742.47
2022-11-20T07:07:26.645Z,100743.41
2022-11-20T07:08:29.163Z,100745.25
2022-11-20T07:09:30.657Z,100743.47
2022-11-20T07:10:33.960Z,100745.25
2022-11-20T07:11:35.726Z,100747.88
2022-11-20T07:12:38.565Z,100742.63
2022-11-20T07:13:40.157Z,100751.28
2022-11-20T07:14:42.672Z,100745.88
2022-11-20T07:15:44.429Z,100750.16
2022-11-20T07:16:46.940Z,100748.31
2022-11-20T07:17:49.380Z,100742.06
2022-11-20T07:18:51.904Z,100749.75
2022-11-20T07:19:53.546Z,100749.69
2022-11-20T07:20:56.044Z,100745.19
2022-11-20T07:21:57.584Z,100738.91
2022-11-20T07:23:01.491Z,100741.63
2022-11-20T07:24:03.070Z,100736.38
2022-11-20T07:25:06.192Z,100740.78
2022-11-20T07:26:12.830Z,100741.81
2022-11-20T07:27:14.327Z,100745.34
2022-11-20T07:28:16.811Z,100735.94
2022-11-20T07:29:18.520Z,100742.16
2022-11-20T07:30:21.656Z,100748.41
2022-11-20T07:31:23.657Z,100749.41
2022-11-20T07:32:27.164Z,100752.97
2022-11-20T07:33:28.952Z,100746.03
2022-11-20T07:34:31.420Z,100751.28
2022-11-20T07:35:33.576Z,100745.03
2022-11-20T07:36:36.166Z,100747.47
2022-11-20T07:37:37.862Z,100743.81
2022-11-20T07:38:41.663Z,100743.66
2022-11-20T07:39:43.426Z,100745.34
2022-11-20T07:40:45.922Z,100740.78
2022-11-20T07:41:47.407Z,100740.69
2022-11-20T07:42:50.813Z,100737.06
2022-11-20T07:43:53.310Z,100736.03
2022-11-20T07:44:54.844Z,100732.31
2022-11-20T07:45:58.072Z,100734.75
2022-11-20T07:46:59.628Z,100734.47
2022-11-20T07:48:02.079Z,100735.25
2022-11-20T07:49:04.587Z,100735.81
2022-11-20T07:50:06.988Z,100727.88
2022-11-20T07:51:09.562Z,100732.94
2022-11-20T07:52:11.081Z,100734.47
2022-11-20T07:53:14.729Z,100730.88
2022-11-20T07:54:17.799Z,100728.94
2022-11-20T07:55:20.345Z,100732.34
2022-11-20T07:56:21.891Z,100738.25
2022-11-20T07:57:28.272Z,100728.50
2022-11-20T07:58:30.927Z,100728.31
2022-11-20T07:59:33.407Z,100731.69
2022-11-20T08:00:35.032Z,100721.00
2022-11-20T08:01:37.527Z,100725.25
2022-11-20T08:02:40.222Z,100730.41
2022-11-20T08:03:42.706Z,100721.53
2022-11-20T08:04:44.296Z,100720.50
2022-11-20T08:05:46.795Z,100723.88
2022-11-20T08:06:48.352Z,100719.31
2022-11-20T08:07:51.139Z,100717.41
2022-11-20T08:08:52.735Z,100714.72
2022-11-20T08:09:56.566Z,100718.09
2022-11-20T08:11:19.057Z,100721.50
2022-11-20T08:12:40.251Z,100710.78
2022-11-20T08:14:00.463Z,100711.44
2022-11-20T08:15:02.082Z,100715.56
2022-11-20T08:16:04.831Z,100712.84
2022-11-20T08:17:07.334Z,100716.34
2022-11-20T08:19:32.711Z,100713.72
2022-11-20T08:20:35.495Z,100722.44
2022-11-20T08:21:38.610Z,100724.22
2022-11-20T08:22:40.240Z,100722.44
2022-11-20T08:23:42.824Z,100719.81
2022-11-20T08:24:45.311Z,100726.88
2022-11-20T08:25:50.592Z,100725.16
2022-11-20T08:26:53.088Z,100726.88
2022-11-20T08:27:59.296Z,100733.91
2022-11-20T08:29:02.760Z,100732.97
2022-11-20T08:30:05.448Z,100729.38
2022-11-20T08:31:07.947Z,100732.00
2022-11-20T08:32:09.592Z,100718.84
2022-11-20T08:33:12.079Z,100722.25
2022-11-20T08:34:18.592Z,100718.69
2022-11-20T08:35:21.631Z,100723.84
2022-11-20T08:36:24.927Z,100729.00
2022-11-20T08:37:26.468Z,100733.34
2022-11-20T08:38:29.000Z,100731.56
2022-11-20T08:39:31.508Z,100735.97
2022-11-20T08:40:33.995Z,100740.38
2022-11-20T08:41:37.880Z,100738.59
2022-11-20T08:42:47.094Z,100737.00
2022-11-20T08:43:49.914Z,100733.44
2022-11-20T08:44:52.415Z,100739.34
2022-11-20T08:45:53.982Z,100729.69
2022-11-20T08:46:56.427Z,100733.09
2022-11-20T08:48:01.243Z,100732.03
2022-11-20T08:49:04.193Z,100720.66
2022-11-20T08:50:06.600Z,100714.56
2022-11-20T08:51:09.064Z,100720.78
2022-11-20T08:52:11.562Z,100728.81
2022-11-20T08:53:13.063Z,100727.16
2022-11-20T08:54:16.094Z,100728.19
2022-11-20T08:55:17.684Z,100725.44
2022-11-20T08:56:20.218Z,100736.66
2022-11-20T08:57:24.491Z,100739.00
2022-11-20T08:58:26.427Z,100736.94
2022-11-20T08:59:58.706Z,100742.00
2022-11-20T09:00:50.964Z,100741.81
2022-11-20T09:01:53.567Z,100736.47
2022-11-20T09:02:55.249Z,100739.97
2022-11-20T09:03:58.559Z,100736.38
2022-11-20T09:05:00.093Z,100741.44
2022-11-20T09:06:04.005Z,100734.31
2022-11-20T09:07:06.537Z,100728.94
2022-11-20T09:08:08.107Z,100730.56
2022-11-20T09:09:10.614Z,100733.19
2022-11-20T09:10:27.875Z,100721.72
2022-11-20T09:11:30.436Z,100730.38
2022-11-20T09:12:33.259Z,100722.28
2022-11-20T09:13:37.204Z,100727.44
2022-11-20T09:14:38.720Z,100726.41
2022-11-20T09:15:41.221Z,100723.59
2022-11-20T09:16:43.715Z,100720.97
2022-11-20T09:17:51.611Z,100717.19
2022-11-20T09:19:20.251Z,100714.56
2022-11-20T09:20:17.091Z,100710.97
2022-11-20T09:21:18.604Z,100721.53
2022-11-20T09:22:21.159Z,100711.91
2022-11-20T09:23:22.729Z,100709.28
2022-11-20T09:24:25.225Z,100711.84
2022-11-20T09:25:26.769Z,100704.78
2022-11-20T09:26:29.263Z,100706.47
2022-11-20T09:27:30.792Z,100702.91
2022-11-20T09:28:35.114Z,100706.25
2022-11-20T09:29:36.602Z,100703.63
2022-11-20T09:30:39.395Z,100702.69
2022-11-20T09:31:41.905Z,100703.47
2022-11-20T09:32:43.766Z,100701.56
2022-11-20T09:33:46.492Z,100697.88
2022-11-20T09:34:48.965Z,100691.56
2022-11-20T09:35:50.488Z,100703.72
2022-11-20T09:36:52.985Z,100714.16
2022-11-20T09:37:54.507Z,100700.06
2022-11-20T09:38:57.281Z,100701.72
2022-11-20T09:39:59.108Z,100701.56
2022-11-20T09:41:06.005Z,100705.84
2022-11-20T09:42:35.714Z,100696.19
2022-11-20T09:43:51.649Z,100698.59
2022-11-20T09:45:17.407Z,100700.19
2022-11-20T09:46:29.020Z,100694.72
2022-11-20T09:47:46.738Z,100697.19
2022-11-20T09:49:11.949Z,100694.44
2022-11-20T09:50:28.009Z,100696.88
2022-11-20T09:51:43.701Z,100701.94
2022-11-20T09:52:57.424Z,100700.91
2022-11-20T09:54:12.563Z,100701.66
2022-11-20T09:55:17.003Z,100700.72
2022-11-20T09:56:22.860Z,100698.09
2022-11-20T09:57:33.260Z,100705.03
2022-11-20T09:58:40.515Z,100705.69
2022-11-20T09:59:46.233Z,100709.09
2022-11-20T10:00:50.410Z,100706.34
2022-11-20T10:01:53.038Z,100707.28
2022-11-20T10:03:00.482Z,100714.25
2022-11-20T10:04:06.190Z,100704.63
2022-11-20T10:05:19.107Z,100700.22
2022-11-20T10:06:28.118Z,100702.00
2022-11-20T10:07:35.838Z,100703.81
2022-11-20T10:08:45.074Z,100700.22
2022-11-20T10:09:52.282Z,100696.53
2022-11-20T10:10:58.636Z,100696.34
2022-11-20T10:12:16.221Z,100693.53
2022-11-20T10:13:37.874Z,100695.84
2022-11-20T10:14:57.247Z,100689.50
2022-11-20T10:16:15.232Z,100689.50
2022-11-20T10:17:29.463Z,100693.19
2022-11-20T10:18:45.160Z,100687.19
2022-11-20T10:20:03.784Z,100684.75
2022-11-20T10:21:14.056Z,100688.25
2022-11-20T10:22:32.015Z,100683.91
2022-11-20T10:24:14.184Z,100677.06
2022-11-20T10:25:18.827Z,100672.00
2022-11-20T10:26:28.403Z,100674.72
2022-11-20T10:27:46.273Z,100660.59
2022-11-20T10:29:03.463Z,100663.13
2022-11-20T10:30:12.990Z,100666.72
2022-11-20T10:31:29.491Z,100655.41
2022-11-20T10:32:38.353Z,100653.75
2022-11-20T10:34:10.476Z,100654.69
2022-11-20T10:35:18.010Z,100657.31
2022-11-20T10:36:25.990Z,100655.53
2022-11-20T10:37:30.248Z,100648.56
2022-11-20T10:38:38.911Z,100652.97
2022-11-20T10:39:48.124Z,100652.97
2022-11-20T10:40:54.546Z,100652.97
2022-11-20T10:41:57.127Z,100648.56
2022-11-20T10:43:03.406Z,100641.50
2022-11-20T10:44:11.659Z,100642.34
2022-11-20T10:45:22.772Z,100646.66
2022-11-20T10:46:27.014Z,100640.34
2022-11-20T10:47:30.949Z,100643.63
2022-11-20T10:48:34.329Z,100645.22
2022-11-20T10:49:35.979Z,100640.69
2022-11-20T10:50:48.587Z,100634.34
2022-11-20T10:52:04.455Z,100635.00
2022-11-20T10:53:15.536Z,100634.91
2022-11-20T10:54:24.348Z,100631.34
2022-11-20T10:55:34.854Z,100632.06
2022-11-20T10:56:48.353Z,100630.28
2022-11-20T10:57:59.671Z,100621.31
2022-11-20T10:59:13.991Z,100622.03
2022-11-20T11:00:18.788Z,100620.38
2022-11-20T11:01:23.892Z,100614.03
2022-11-20T11:02:33.434Z,100614.88
2022-11-20T11:03:36.088Z,100614.78
2022-11-20T11:04:43.723Z,100611.19
2022-11-20T11:05:52.772Z,100609.41
2022-11-20T11:06:59.511Z,100618.03
2022-11-20T11:08:02.113Z,100611.91
2022-11-20T11:09:12.076Z,100615.41
2022-11-20T11:10:24.821Z,100603.19
2022-11-20T11:11:29.750Z,100605.84
2022-11-20T11:12:32.273Z,100599.72
2022-11-20T11:13:33.901Z,100595.38
2022-11-20T11:14:44.434Z,100595.28
2022-11-20T11:15:48.353Z,100593.38
2022-11-20T11:16:51.732Z,100591.47
2022-11-20T11:17:54.253Z,100593.16
2022-11-20T11:19:05.343Z,100592.09
2022-11-20T11:20:17.966Z,100591.03
2022-11-20T11:21:25.520Z,100587.69
2022-11-20T11:22:29.723Z,100582.41
2022-11-20T11:23:36.024Z,100579.75
2022-11-20T11:24:42.766Z,100581.47
2022-11-20T11:25:58.946Z,100581.34
2022-11-20T11:27:05.313Z,100578.69
2022-11-20T11:28:22.128Z,100573.56
2022-11-20T11:29:25.284Z,100574.63
2022-11-20T11:30:30.922Z,100572.06
2022-11-20T11:31:36.394Z,100568.56
2022-11-20T11:32:37.949Z,100568.50
2022-11-20T11:33:40.471Z,100564.88
2022-11-20T11:34:43.186Z,100563.00
2022-11-20T11:35:51.421Z,100566.38
2022-11-20T11:36:59.092Z,100557.50
2022-11-20T11:38:08.028Z,100557.50
2022-11-20T11:39:15.742Z,100555.59
2022-11-20T11:40:24.785Z,100559.94
2022-11-20T11:41:32.873Z,100557.28
2022-11-20T11:42:34.782Z,100557.28
2022-11-20T11:43:57.127Z,100552.13
2022-11-20T11:45:08.086Z,100550.53
2022-11-20T11:46:26.412Z,100546.19
2022-11-20T11:47:34.163Z,100545.25
2022-11-20T11:48:35.693Z,100541.69
2022-11-20T11:49:38.205Z,100537.97
2022-11-20T11:50:49.774Z,100536.91
2022-11-20T11:52:02.633Z,100532.50
2022-11-20T11:53:12.214Z,100538.63
2022-11-20T11:54:18.774Z,100528.78
2022-11-20T11:55:31.167Z,100523.28
2022-11-20T11:56:34.083Z,100517.00
2022-11-20T11:57:46.305Z,100514.22
2022-11-20T11:58:50.698Z,100509.78
2022-11-20T12:00:03.194Z,100514.00
2022-11-20T12:01:21.667Z,100514.75
2022-11-20T12:02:36.872Z,100504.22
2022-11-20T12:03:42.236Z,100504.09
2022-11-20T12:04:47.253Z,100506.63
2022-11-20T12:05:55.886Z,100503.88
2022-11-20T12:07:18.342Z,100508.06
2022-11-20T12:08:29.156Z,100504.41
2022-11-20T12:09:39.480Z,100506.91
2022-11-20T12:10:48.222Z,100504.19
2022-11-20T12:11:56.269Z,100501.41
2022-11-20T12:13:03.647Z,100503.94
2022-11-20T12:14:15.617Z,100505.53
2022-11-20T12:15:27.257Z,100503.81
2022-11-20T12:16:31.278Z,100502.16
2022-11-20T12:17:34.197Z,100494.25
2022-11-20T12:18:36.859Z,100498.69